Terminal Aerodrome Forecast
Issued by NWS Cleveland, OH

Home | Current Version | Previous Version | Text Only | Print | Product List | Glossary On
Versions: 1 2 3 4 5 6 7 8 9 10 11 12 13 14 15 16 17 18 19 20 21 22 23 24
000
FTUS41 KCLE 231137
TAFERI
TAF
KERI 231137Z 2312/2412 06012KT 2SM BR OVC002
     FM231500 07015G25KT 1 1/2SM -RA BR OVC002
     FM231700 06010G20KT 1 1/2SM -RA BR OVC003
     FM240900 04006KT 1 1/2SM -DZ BR OVC003=

USA.gov is the U.S. government's official web portal to all federal, state and local government web resources and services.